sensor_id;sensor_type;location;lat;lon;timestamp;P1;durP1;ratioP1;P2;durP2;ratioP2
82479;SDS011;72105;46.112;12.902;2024-02-21T00:00:56;1.73;;;1.27;;
82479;SDS011;72105;46.112;12.902;2024-02-21T00:03:22;2.30;;;1.33;;
82479;SDS011;72105;46.112;12.902;2024-02-21T00:05:48;1.90;;;1.08;;
82479;SDS011;72105;46.112;12.902;2024-02-21T00:08:14;1.70;;;1.20;;
82479;SDS011;72105;46.112;12.902;2024-02-21T00:10:40;1.27;;;1.17;;
82479;SDS011;72105;46.112;12.902;2024-02-21T00:13:06;1.92;;;1.40;;
82479;SDS011;72105;46.112;12.902;2024-02-21T00:15:33;2.15;;;1.33;;
82479;SDS011;72105;46.112;12.902;2024-02-21T00:17:59;2.22;;;1.63;;
82479;SDS011;72105;46.112;12.902;2024-02-21T00:20:25;2.67;;;2.00;;
82479;SDS011;72105;46.112;12.902;2024-02-21T00:22:51;3.25;;;1.98;;
82479;SDS011;72105;46.112;12.902;2024-02-21T00:25:17;3.80;;;2.22;;
82479;SDS011;72105;46.112;12.902;2024-02-21T00:27:43;4.32;;;2.83;;
82479;SDS011;72105;46.112;12.902;2024-02-21T00:30:10;2.40;;;1.80;;
82479;SDS011;72105;46.112;12.902;2024-02-21T00:32:36;3.35;;;2.00;;
82479;SDS011;72105;46.112;12.902;2024-02-21T00:35:02;2.20;;;2.00;;
82479;SDS011;72105;46.112;12.902;2024-02-21T00:37:28;4.07;;;2.28;;
82479;SDS011;72105;46.112;12.902;2024-02-21T00:39:54;4.00;;;2.20;;
82479;SDS011;72105;46.112;12.902;2024-02-21T00:42:20;2.15;;;1.70;;
82479;SDS011;72105;46.112;12.902;2024-02-21T00:44:47;2.22;;;1.98;;
82479;SDS011;72105;46.112;12.902;2024-02-21T00:47:13;2.67;;;1.48;;
82479;SDS011;72105;46.112;12.902;2024-02-21T00:49:39;2.30;;;1.80;;
82479;SDS011;72105;46.112;12.902;2024-02-21T00:52:05;1.50;;;1.40;;
82479;SDS011;72105;46.112;12.902;2024-02-21T00:54:31;2.20;;;2.00;;
82479;SDS011;72105;46.112;12.902;2024-02-21T00:56:57;2.28;;;1.55;;
82479;SDS011;72105;46.112;12.902;2024-02-21T00:59:24;1.98;;;1.45;;
82479;SDS011;72105;46.112;12.902;2024-02-21T01:01:50;1.85;;;1.55;;
82479;SDS011;72105;46.112;12.902;2024-02-21T01:04:16;1.85;;;1.35;;
82479;SDS011;72105;46.112;12.902;2024-02-21T01:06:42;2.75;;;1.42;;
82479;SDS011;72105;46.112;12.902;2024-02-21T01:09:09;2.35;;;1.42;;
82479;SDS011;72105;46.112;12.902;2024-02-21T01:11:35;1.88;;;1.17;;
82479;SDS011;72105;46.112;12.902;2024-02-21T01:14:01;1.27;;;1.00;;
82479;SDS011;72105;46.112;12.902;2024-02-21T01:16:27;1.80;;;1.20;;
82479;SDS011;72105;46.112;12.902;2024-02-21T01:18:54;1.63;;;1.27;;
82479;SDS011;72105;46.112;12.902;2024-02-21T01:21:20;1.27;;;1.17;;
82479;SDS011;72105;46.112;12.902;2024-02-21T01:23:46;1.52;;;1.30;;
82479;SDS011;72105;46.112;12.902;2024-02-21T01:26:12;1.27;;;1.00;;
82479;SDS011;72105;46.112;12.902;2024-02-21T01:28:40;1.88;;;1.30;;
82479;SDS011;72105;46.112;12.902;2024-02-21T01:31:06;1.95;;;1.05;;
82479;SDS011;72105;46.112;12.902;2024-02-21T01:33:32;1.23;;;1.00;;
82479;SDS011;72105;46.112;12.902;2024-02-21T01:36:04;1.40;;;1.05;;
82479;SDS011;72105;46.112;12.902;2024-02-21T01:38:33;2.50;;;1.30;;
82479;SDS011;72105;46.112;12.902;2024-02-21T01:40:59;2.10;;;1.58;;
82479;SDS011;72105;46.112;12.902;2024-02-21T01:43:25;2.08;;;1.00;;
82479;SDS011;72105;46.112;12.902;2024-02-21T01:45:57;1.67;;;1.02;;
82479;SDS011;72105;46.112;12.902;2024-02-21T01:48:23;1.77;;;1.33;;
82479;SDS011;72105;46.112;12.902;2024-02-21T01:50:50;3.28;;;1.20;;
82479;SDS011;72105;46.112;12.902;2024-02-21T01:53:17;2.15;;;0.85;;
82479;SDS011;72105;46.112;12.902;2024-02-21T01:58:11;1.48;;;0.95;;
82479;SDS011;72105;46.112;12.902;2024-02-21T02:00:37;0.95;;;0.70;;
82479;SDS011;72105;46.112;12.902;2024-02-21T02:03:04;0.85;;;0.85;;
82479;SDS011;72105;46.112;12.902;2024-02-21T02:05:30;1.42;;;1.10;;
82479;SDS011;72105;46.112;12.902;2024-02-21T02:07:56;1.45;;;0.90;;
82479;SDS011;72105;46.112;12.902;2024-02-21T02:10:22;1.30;;;0.88;;
82479;SDS011;72105;46.112;12.902;2024-02-21T02:12:48;0.95;;;0.88;;
82479;SDS011;72105;46.112;12.902;2024-02-21T02:15:14;1.10;;;1.00;;
82479;SDS011;72105;46.112;12.902;2024-02-21T02:17:40;1.33;;;1.23;;
82479;SDS011;72105;46.112;12.902;2024-02-21T02:20:06;2.35;;;1.30;;
82479;SDS011;72105;46.112;12.902;2024-02-21T02:22:33;1.52;;;1.13;;
82479;SDS011;72105;46.112;12.902;2024-02-21T02:25:02;3.47;;;1.17;;
82479;SDS011;72105;46.112;12.902;2024-02-21T02:27:29;2.22;;;1.30;;
82479;SDS011;72105;46.112;12.902;2024-02-21T02:29:55;2.40;;;1.15;;
82479;SDS011;72105;46.112;12.902;2024-02-21T02:32:21;1.27;;;1.17;;
82479;SDS011;72105;46.112;12.902;2024-02-21T02:34:47;2.03;;;1.40;;
82479;SDS011;72105;46.112;12.902;2024-02-21T02:37:13;1.77;;;1.10;;
82479;SDS011;72105;46.112;12.902;2024-02-21T02:39:39;1.90;;;1.13;;
82479;SDS011;72105;46.112;12.902;2024-02-21T02:42:05;1.85;;;1.40;;
82479;SDS011;72105;46.112;12.902;2024-02-21T02:44:31;1.80;;;1.00;;
82479;SDS011;72105;46.112;12.902;2024-02-21T02:46:57;1.92;;;1.42;;
82479;SDS011;72105;46.112;12.902;2024-02-21T02:49:23;1.52;;;1.23;;
82479;SDS011;72105;46.112;12.902;2024-02-21T02:51:49;2.00;;;1.40;;
82479;SDS011;72105;46.112;12.902;2024-02-21T02:54:15;3.40;;;1.20;;
82479;SDS011;72105;46.112;12.902;2024-02-21T02:56:42;1.48;;;1.02;;
82479;SDS011;72105;46.112;12.902;2024-02-21T02:59:08;2.40;;;1.50;;
82479;SDS011;72105;46.112;12.902;2024-02-21T03:01:34;1.48;;;1.17;;
82479;SDS011;72105;46.112;12.902;2024-02-21T03:04:00;1.90;;;1.70;;
82479;SDS011;72105;46.112;12.902;2024-02-21T03:06:26;1.65;;;1.08;;
82479;SDS011;72105;46.112;12.902;2024-02-21T03:08:52;1.45;;;1.00;;
82479;SDS011;72105;46.112;12.902;2024-02-21T03:11:19;1.08;;;0.98;;
82479;SDS011;72105;46.112;12.902;2024-02-21T03:13:48;1.20;;;1.00;;
82479;SDS011;72105;46.112;12.902;2024-02-21T03:16:16;1.90;;;1.10;;
82479;SDS011;72105;46.112;12.902;2024-02-21T03:18:43;1.08;;;0.95;;
82479;SDS011;72105;46.112;12.902;2024-02-21T03:21:09;1.58;;;1.00;;
82479;SDS011;72105;46.112;12.902;2024-02-21T03:23:35;1.13;;;1.00;;
82479;SDS011;72105;46.112;12.902;2024-02-21T03:26:01;0.80;;;0.75;;
82479;SDS011;72105;46.112;12.902;2024-02-21T03:28:27;1.48;;;0.70;;
82479;SDS011;72105;46.112;12.902;2024-02-21T03:30:53;1.30;;;0.80;;
82479;SDS011;72105;46.112;12.902;2024-02-21T03:33:20;0.80;;;0.73;;
82479;SDS011;72105;46.112;12.902;2024-02-21T03:35:47;1.10;;;0.85;;
82479;SDS011;72105;46.112;12.902;2024-02-21T03:38:14;1.50;;;0.98;;
82479;SDS011;72105;46.112;12.902;2024-02-21T03:40:40;1.27;;;0.73;;
82479;SDS011;72105;46.112;12.902;2024-02-21T03:43:09;1.02;;;0.82;;
82479;SDS011;72105;46.112;12.902;2024-02-21T03:45:35;1.65;;;0.70;;
82479;SDS011;72105;46.112;12.902;2024-02-21T03:48:01;1.40;;;0.80;;
82479;SDS011;72105;46.112;12.902;2024-02-21T03:50:27;2.58;;;0.80;;
82479;SDS011;72105;46.112;12.902;2024-02-21T03:52:54;0.85;;;0.80;;
82479;SDS011;72105;46.112;12.902;2024-02-21T03:55:20;1.50;;;0.82;;
82479;SDS011;72105;46.112;12.902;2024-02-21T03:57:47;1.33;;;0.98;;
82479;SDS011;72105;46.112;12.902;2024-02-21T04:00:13;0.82;;;0.60;;
82479;SDS011;72105;46.112;12.902;2024-02-21T04:02:39;1.10;;;0.88;;
82479;SDS011;72105;46.112;12.902;2024-02-21T04:05:05;1.40;;;0.90;;
82479;SDS011;72105;46.112;12.902;2024-02-21T04:07:36;1.60;;;0.80;;
82479;SDS011;72105;46.112;12.902;2024-02-21T04:10:02;2.50;;;1.10;;
82479;SDS011;72105;46.112;12.902;2024-02-21T04:12:28;1.23;;;1.00;;
82479;SDS011;72105;46.112;12.902;2024-02-21T04:14:54;2.28;;;1.13;;
82479;SDS011;72105;46.112;12.902;2024-02-21T04:17:20;1.17;;;1.08;;
82479;SDS011;72105;46.112;12.902;2024-02-21T04:19:46;1.30;;;1.05;;
82479;SDS011;72105;46.112;12.902;2024-02-21T04:22:12;1.65;;;1.02;;
82479;SDS011;72105;46.112;12.902;2024-02-21T04:24:38;1.85;;;1.15;;
82479;SDS011;72105;46.112;12.902;2024-02-21T04:27:04;2.25;;;0.85;;
82479;SDS011;72105;46.112;12.902;2024-02-21T04:29:30;0.85;;;0.80;;
82479;SDS011;72105;46.112;12.902;2024-02-21T04:31:56;1.10;;;0.70;;
82479;SDS011;72105;46.112;12.902;2024-02-21T04:34:23;0.93;;;0.80;;
82479;SDS011;72105;46.112;12.902;2024-02-21T04:36:49;2.47;;;0.90;;
82479;SDS011;72105;46.112;12.902;2024-02-21T04:39:15;1.25;;;0.90;;
82479;SDS011;72105;46.112;12.902;2024-02-21T04:41:41;1.23;;;0.70;;
82479;SDS011;72105;46.112;12.902;2024-02-21T04:44:07;3.33;;;1.20;;
82479;SDS011;72105;46.112;12.902;2024-02-21T04:46:33;0.93;;;0.93;;
82479;SDS011;72105;46.112;12.902;2024-02-21T04:49:00;0.85;;;0.75;;
82479;SDS011;72105;46.112;12.902;2024-02-21T04:51:26;0.75;;;0.65;;
82479;SDS011;72105;46.112;12.902;2024-02-21T04:53:52;0.90;;;0.57;;
82479;SDS011;72105;46.112;12.902;2024-02-21T04:56:18;1.30;;;0.70;;
82479;SDS011;72105;46.112;12.902;2024-02-21T04:58:44;0.47;;;0.47;;
82479;SDS011;72105;46.112;12.902;2024-02-21T05:01:10;0.88;;;0.60;;
82479;SDS011;72105;46.112;12.902;2024-02-21T05:03:36;1.02;;;0.60;;
82479;SDS011;72105;46.112;12.902;2024-02-21T05:06:02;0.77;;;0.77;;
82479;SDS011;72105;46.112;12.902;2024-02-21T05:08:28;1.25;;;0.47;;
82479;SDS011;72105;46.112;12.902;2024-02-21T05:10:54;0.80;;;0.60;;
82479;SDS011;72105;46.112;12.902;2024-02-21T05:13:20;1.05;;;0.75;;
82479;SDS011;72105;46.112;12.902;2024-02-21T05:15:47;0.47;;;0.47;;
82479;SDS011;72105;46.112;12.902;2024-02-21T05:18:13;0.70;;;0.70;;
82479;SDS011;72105;46.112;12.902;2024-02-21T05:20:39;1.10;;;1.05;;
82479;SDS011;72105;46.112;12.902;2024-02-21T05:23:05;0.63;;;0.63;;
82479;SDS011;72105;46.112;12.902;2024-02-21T05:25:31;1.42;;;0.75;;
82479;SDS011;72105;46.112;12.902;2024-02-21T05:27:57;0.93;;;0.73;;
82479;SDS011;72105;46.112;12.902;2024-02-21T05:30:28;1.58;;;0.90;;
82479;SDS011;72105;46.112;12.902;2024-02-21T05:32:54;1.75;;;1.65;;
82479;SDS011;72105;46.112;12.902;2024-02-21T05:35:24;0.82;;;0.60;;
82479;SDS011;72105;46.112;12.902;2024-02-21T05:37:50;1.25;;;0.50;;
82479;SDS011;72105;46.112;12.902;2024-02-21T05:40:17;1.00;;;0.60;;
82479;SDS011;72105;46.112;12.902;2024-02-21T05:42:43;1.30;;;1.05;;
82479;SDS011;72105;46.112;12.902;2024-02-21T05:45:10;1.45;;;0.82;;
82479;SDS011;72105;46.112;12.902;2024-02-21T05:47:36;1.60;;;1.08;;
82479;SDS011;72105;46.112;12.902;2024-02-21T05:50:02;3.55;;;0.90;;
82479;SDS011;72105;46.112;12.902;2024-02-21T05:52:28;1.05;;;1.00;;
82479;SDS011;72105;46.112;12.902;2024-02-21T05:54:54;2.05;;;1.38;;
82479;SDS011;72105;46.112;12.902;2024-02-21T05:57:20;1.63;;;1.40;;
82479;SDS011;72105;46.112;12.902;2024-02-21T05:59:46;3.72;;;1.42;;
82479;SDS011;72105;46.112;12.902;2024-02-21T06:02:12;1.98;;;1.17;;
82479;SDS011;72105;46.112;12.902;2024-02-21T06:04:38;1.35;;;1.02;;
82479;SDS011;72105;46.112;12.902;2024-02-21T06:07:05;1.02;;;0.93;;
82479;SDS011;72105;46.112;12.902;2024-02-21T06:09:31;1.13;;;0.90;;
82479;SDS011;72105;46.112;12.902;2024-02-21T06:11:57;1.52;;;0.93;;
82479;SDS011;72105;46.112;12.902;2024-02-21T06:14:23;1.77;;;1.10;;
82479;SDS011;72105;46.112;12.902;2024-02-21T06:16:49;1.58;;;1.45;;
82479;SDS011;72105;46.112;12.902;2024-02-21T06:19:15;2.22;;;1.80;;
82479;SDS011;72105;46.112;12.902;2024-02-21T06:21:41;2.45;;;1.45;;
82479;SDS011;72105;46.112;12.902;2024-02-21T06:24:07;2.33;;;1.65;;
82479;SDS011;72105;46.112;12.902;2024-02-21T06:26:33;3.55;;;1.80;;
82479;SDS011;72105;46.112;12.902;2024-02-21T06:28:59;2.03;;;1.77;;
82479;SDS011;72105;46.112;12.902;2024-02-21T06:31:27;3.10;;;2.30;;
82479;SDS011;72105;46.112;12.902;2024-02-21T06:33:53;3.17;;;1.90;;
82479;SDS011;72105;46.112;12.902;2024-02-21T06:36:19;1.02;;;0.68;;
82479;SDS011;72105;46.112;12.902;2024-02-21T06:38:45;1.58;;;1.17;;
82479;SDS011;72105;46.112;12.902;2024-02-21T06:41:15;3.08;;;1.40;;
82479;SDS011;72105;46.112;12.902;2024-02-21T06:43:43;1.35;;;1.25;;
82479;SDS011;72105;46.112;12.902;2024-02-21T06:46:10;1.48;;;1.13;;
82479;SDS011;72105;46.112;12.902;2024-02-21T06:48:36;2.20;;;0.95;;
82479;SDS011;72105;46.112;12.902;2024-02-21T06:51:02;1.50;;;0.90;;
82479;SDS011;72105;46.112;12.902;2024-02-21T06:53:28;0.73;;;0.70;;
82479;SDS011;72105;46.112;12.902;2024-02-21T06:55:54;1.08;;;0.98;;
82479;SDS011;72105;46.112;12.902;2024-02-21T06:58:20;1.58;;;0.98;;
82479;SDS011;72105;46.112;12.902;2024-02-21T07:00:47;1.83;;;1.00;;
82479;SDS011;72105;46.112;12.902;2024-02-21T07:03:13;1.13;;;0.80;;
82479;SDS011;72105;46.112;12.902;2024-02-21T07:05:39;2.67;;;1.15;;
82479;SDS011;72105;46.112;12.902;2024-02-21T07:08:05;1.17;;;1.00;;
82479;SDS011;72105;46.112;12.902;2024-02-21T07:10:31;2.38;;;1.35;;
82479;SDS011;72105;46.112;12.902;2024-02-21T07:12:57;1.65;;;1.15;;
82479;SDS011;72105;46.112;12.902;2024-02-21T07:15:42;4.25;;;1.10;;
82479;SDS011;72105;46.112;12.902;2024-02-21T07:18:08;5.18;;;1.23;;
82479;SDS011;72105;46.112;12.902;2024-02-21T07:20:34;0.82;;;0.80;;
82479;SDS011;72105;46.112;12.902;2024-02-21T07:23:02;1.60;;;1.23;;
82479;SDS011;72105;46.112;12.902;2024-02-21T07:25:29;1.77;;;1.35;;
82479;SDS011;72105;46.112;12.902;2024-02-21T07:27:55;2.85;;;1.35;;
82479;SDS011;72105;46.112;12.902;2024-02-21T07:30:21;2.53;;;2.08;;
82479;SDS011;72105;46.112;12.902;2024-02-21T07:32:50;2.00;;;1.63;;
82479;SDS011;72105;46.112;12.902;2024-02-21T07:35:17;4.20;;;2.05;;
82479;SDS011;72105;46.112;12.902;2024-02-21T07:37:43;4.10;;;2.40;;
82479;SDS011;72105;46.112;12.902;2024-02-21T07:40:13;3.35;;;2.00;;
82479;SDS011;72105;46.112;12.902;2024-02-21T07:42:39;2.83;;;1.77;;
82479;SDS011;72105;46.112;12.902;2024-02-21T07:45:06;2.00;;;1.40;;
82479;SDS011;72105;46.112;12.902;2024-02-21T07:47:33;2.72;;;1.75;;
82479;SDS011;72105;46.112;12.902;2024-02-21T07:49:59;2.63;;;1.48;;
82479;SDS011;72105;46.112;12.902;2024-02-21T07:52:25;1.40;;;1.25;;
82479;SDS011;72105;46.112;12.902;2024-02-21T07:54:51;1.80;;;1.15;;
82479;SDS011;72105;46.112;12.902;2024-02-21T07:57:17;1.63;;;1.38;;
82479;SDS011;72105;46.112;12.902;2024-02-21T07:59:43;1.70;;;1.25;;
82479;SDS011;72105;46.112;12.902;2024-02-21T08:02:10;2.85;;;1.75;;
82479;SDS011;72105;46.112;12.902;2024-02-21T08:04:36;2.97;;;1.15;;
82479;SDS011;72105;46.112;12.902;2024-02-21T08:07:02;1.52;;;1.10;;
82479;SDS011;72105;46.112;12.902;2024-02-21T08:09:29;1.30;;;0.85;;
82479;SDS011;72105;46.112;12.902;2024-02-21T08:11:55;1.23;;;0.90;;
82479;SDS011;72105;46.112;12.902;2024-02-21T08:14:22;1.30;;;1.00;;
82479;SDS011;72105;46.112;12.902;2024-02-21T08:16:50;1.40;;;0.90;;
82479;SDS011;72105;46.112;12.902;2024-02-21T08:19:16;1.00;;;0.90;;
82479;SDS011;72105;46.112;12.902;2024-02-21T08:21:43;1.35;;;0.85;;
82479;SDS011;72105;46.112;12.902;2024-02-21T08:24:09;0.55;;;0.55;;
82479;SDS011;72105;46.112;12.902;2024-02-21T08:26:39;1.33;;;0.93;;
82479;SDS011;72105;46.112;12.902;2024-02-21T08:29:05;1.23;;;0.77;;
82479;SDS011;72105;46.112;12.902;2024-02-21T08:31:31;1.15;;;1.13;;
82479;SDS011;72105;46.112;12.902;2024-02-21T08:33:59;0.82;;;0.60;;
82479;SDS011;72105;46.112;12.902;2024-02-21T08:36:38;1.38;;;0.60;;
82479;SDS011;72105;46.112;12.902;2024-02-21T08:39:04;0.80;;;0.70;;
82479;SDS011;72105;46.112;12.902;2024-02-21T08:41:30;0.70;;;0.70;;
82479;SDS011;72105;46.112;12.902;2024-02-21T08:43:56;0.60;;;0.50;;
82479;SDS011;72105;46.112;12.902;2024-02-21T08:46:23;0.70;;;0.68;;
82479;SDS011;72105;46.112;12.902;2024-02-21T08:48:50;1.90;;;1.00;;
82479;SDS011;72105;46.112;12.902;2024-02-21T08:51:16;1.10;;;0.93;;
82479;SDS011;72105;46.112;12.902;2024-02-21T08:53:43;1.55;;;0.73;;
82479;SDS011;72105;46.112;12.902;2024-02-21T08:56:09;1.00;;;0.77;;
82479;SDS011;72105;46.112;12.902;2024-02-21T08:58:36;1.33;;;0.80;;
82479;SDS011;72105;46.112;12.902;2024-02-21T09:01:03;4.40;;;0.85;;
82479;SDS011;72105;46.112;12.902;2024-02-21T09:03:33;0.80;;;0.50;;
82479;SDS011;72105;46.112;12.902;2024-02-21T09:05:59;1.80;;;0.70;;
82479;SDS011;72105;46.112;12.902;2024-02-21T09:08:26;0.55;;;0.55;;
82479;SDS011;72105;46.112;12.902;2024-02-21T09:10:52;1.02;;;0.75;;
82479;SDS011;72105;46.112;12.902;2024-02-21T09:13:19;1.15;;;0.90;;
82479;SDS011;72105;46.112;12.902;2024-02-21T09:15:45;2.15;;;0.93;;
82479;SDS011;72105;46.112;12.902;2024-02-21T09:18:11;1.20;;;1.00;;
82479;SDS011;72105;46.112;12.902;2024-02-21T09:20:37;1.10;;;0.93;;
82479;SDS011;72105;46.112;12.902;2024-02-21T09:23:03;0.98;;;0.88;;
82479;SDS011;72105;46.112;12.902;2024-02-21T09:25:29;0.70;;;0.70;;
82479;SDS011;72105;46.112;12.902;2024-02-21T09:27:56;1.00;;;0.90;;
82479;SDS011;72105;46.112;12.902;2024-02-21T09:30:23;0.90;;;0.75;;
82479;SDS011;72105;46.112;12.902;2024-02-21T09:32:49;1.00;;;0.90;;
82479;SDS011;72105;46.112;12.902;2024-02-21T09:35:20;1.88;;;0.90;;
82479;SDS011;72105;46.112;12.902;2024-02-21T09:37:48;3.85;;;1.13;;
82479;SDS011;72105;46.112;12.902;2024-02-21T09:40:17;0.90;;;0.80;;
82479;SDS011;72105;46.112;12.902;2024-02-21T09:42:43;1.15;;;0.95;;
82479;SDS011;72105;46.112;12.902;2024-02-21T09:47:43;1.48;;;0.80;;
82479;SDS011;72105;46.112;12.902;2024-02-21T09:50:14;0.82;;;0.70;;
82479;SDS011;72105;46.112;12.902;2024-02-21T09:52:41;0.68;;;0.60;;
82479;SDS011;72105;46.112;12.902;2024-02-21T09:55:08;9.40;;;5.07;;
82479;SDS011;72105;46.112;12.902;2024-02-21T09:57:37;2.05;;;0.80;;
82479;SDS011;72105;46.112;12.902;2024-02-21T10:00:04;1.45;;;0.95;;
82479;SDS011;72105;46.112;12.902;2024-02-21T10:02:34;2.42;;;1.70;;
82479;SDS011;72105;46.112;12.902;2024-02-21T10:05:00;2.22;;;0.80;;
82479;SDS011;72105;46.112;12.902;2024-02-21T10:10:02;1.58;;;0.60;;
82479;SDS011;72105;46.112;12.902;2024-02-21T10:12:29;1.77;;;0.82;;
82479;SDS011;72105;46.112;12.902;2024-02-21T10:15:04;1.40;;;1.00;;
82479;SDS011;72105;46.112;12.902;2024-02-21T10:17:33;2.03;;;1.10;;
82479;SDS011;72105;46.112;12.902;2024-02-21T10:20:06;1.17;;;1.08;;
82479;SDS011;72105;46.112;12.902;2024-02-21T10:22:33;1.40;;;0.90;;
82479;SDS011;72105;46.112;12.902;2024-02-21T10:25:07;1.55;;;1.27;;
82479;SDS011;72105;46.112;12.902;2024-02-21T10:27:34;3.10;;;0.93;;
82479;SDS011;72105;46.112;12.902;2024-02-21T10:30:00;3.67;;;1.05;;
82479;SDS011;72105;46.112;12.902;2024-02-21T10:32:27;2.35;;;1.45;;
82479;SDS011;72105;46.112;12.902;2024-02-21T10:35:01;1.95;;;1.38;;
82479;SDS011;72105;46.112;12.902;2024-02-21T10:37:29;1.60;;;1.15;;
82479;SDS011;72105;46.112;12.902;2024-02-21T10:39:55;3.33;;;2.08;;
82479;SDS011;72105;46.112;12.902;2024-02-21T10:42:22;1.92;;;1.20;;
82479;SDS011;72105;46.112;12.902;2024-02-21T10:44:50;1.85;;;1.08;;
82479;SDS011;72105;46.112;12.902;2024-02-21T10:47:17;1.63;;;1.30;;
82479;SDS011;72105;46.112;12.902;2024-02-21T10:49:46;1.98;;;1.40;;
82479;SDS011;72105;46.112;12.902;2024-02-21T10:53:00;1.30;;;1.08;;
82479;SDS011;72105;46.112;12.902;2024-02-21T10:55:21;1.55;;;1.23;;
82479;SDS011;72105;46.112;12.902;2024-02-21T10:57:51;2.55;;;2.10;;
82479;SDS011;72105;46.112;12.902;2024-02-21T11:00:18;3.30;;;1.63;;
82479;SDS011;72105;46.112;12.902;2024-02-21T11:02:44;2.70;;;1.45;;
82479;SDS011;72105;46.112;12.902;2024-02-21T11:05:11;2.33;;;1.50;;
82479;SDS011;72105;46.112;12.902;2024-02-21T11:07:37;3.38;;;2.30;;
82479;SDS011;72105;46.112;12.902;2024-02-21T11:10:04;2.17;;;1.15;;
82479;SDS011;72105;46.112;12.902;2024-02-21T11:12:33;1.65;;;1.00;;
82479;SDS011;72105;46.112;12.902;2024-02-21T11:15:05;2.03;;;1.45;;
82479;SDS011;72105;46.112;12.902;2024-02-21T11:17:32;2.00;;;1.13;;
82479;SDS011;72105;46.112;12.902;2024-02-21T11:19:58;2.25;;;1.42;;
82479;SDS011;72105;46.112;12.902;2024-02-21T11:22:26;1.58;;;1.30;;
82479;SDS011;72105;46.112;12.902;2024-02-21T11:25:05;1.83;;;1.25;;
82479;SDS011;72105;46.112;12.902;2024-02-21T11:27:33;6.78;;;1.70;;
82479;SDS011;72105;46.112;12.902;2024-02-21T11:29:59;2.75;;;1.98;;
82479;SDS011;72105;46.112;12.902;2024-02-21T11:32:26;2.70;;;1.58;;
82479;SDS011;72105;46.112;12.902;2024-02-21T11:34:55;2.53;;;1.50;;
82479;SDS011;72105;46.112;12.902;2024-02-21T11:37:21;3.40;;;2.05;;
82479;SDS011;72105;46.112;12.902;2024-02-21T11:39:50;1.40;;;1.23;;
82479;SDS011;72105;46.112;12.902;2024-02-21T11:44:45;1.90;;;1.50;;
82479;SDS011;72105;46.112;12.902;2024-02-21T11:47:11;1.98;;;1.40;;
82479;SDS011;72105;46.112;12.902;2024-02-21T11:49:38;2.67;;;1.70;;
82479;SDS011;72105;46.112;12.902;2024-02-21T11:54:31;2.15;;;1.60;;
82479;SDS011;72105;46.112;12.902;2024-02-21T11:56:57;2.30;;;1.65;;
82479;SDS011;72105;46.112;12.902;2024-02-21T11:59:23;4.03;;;2.53;;
82479;SDS011;72105;46.112;12.902;2024-02-21T12:01:49;2.38;;;2.05;;
82479;SDS011;72105;46.112;12.902;2024-02-21T12:04:17;4.13;;;2.50;;
82479;SDS011;72105;46.112;12.902;2024-02-21T12:06:45;3.70;;;2.10;;
82479;SDS011;72105;46.112;12.902;2024-02-21T12:09:17;3.67;;;2.35;;
82479;SDS011;72105;46.112;12.902;2024-02-21T12:11:43;2.55;;;1.67;;
82479;SDS011;72105;46.112;12.902;2024-02-21T12:14:10;2.58;;;1.70;;
82479;SDS011;72105;46.112;12.902;2024-02-21T12:16:36;3.42;;;2.05;;
82479;SDS011;72105;46.112;12.902;2024-02-21T12:19:02;2.45;;;1.90;;
82479;SDS011;72105;46.112;12.902;2024-02-21T12:21:35;2.53;;;2.03;;
82479;SDS011;72105;46.112;12.902;2024-02-21T12:26:40;3.42;;;1.98;;
82479;SDS011;72105;46.112;12.902;2024-02-21T12:29:06;3.35;;;2.22;;
82479;SDS011;72105;46.112;12.902;2024-02-21T12:31:39;5.07;;;2.30;;
82479;SDS011;72105;46.112;12.902;2024-02-21T12:34:05;3.00;;;2.22;;
82479;SDS011;72105;46.112;12.902;2024-02-21T12:36:31;5.28;;;3.15;;
82479;SDS011;72105;46.112;12.902;2024-02-21T12:38:58;9.35;;;5.90;;
82479;SDS011;72105;46.112;12.902;2024-02-21T12:41:25;3.30;;;2.30;;
82479;SDS011;72105;46.112;12.902;2024-02-21T12:43:52;5.40;;;3.55;;
82479;SDS011;72105;46.112;12.902;2024-02-21T12:46:18;6.88;;;4.82;;
82479;SDS011;72105;46.112;12.902;2024-02-21T12:48:44;5.05;;;3.88;;
82479;SDS011;72105;46.112;12.902;2024-02-21T12:51:10;4.15;;;3.20;;
82479;SDS011;72105;46.112;12.902;2024-02-21T12:53:36;3.97;;;2.85;;
82479;SDS011;72105;46.112;12.902;2024-02-21T12:56:03;4.68;;;2.70;;
82479;SDS011;72105;46.112;12.902;2024-02-21T12:58:30;4.03;;;2.63;;
82479;SDS011;72105;46.112;12.902;2024-02-21T13:00:56;3.35;;;2.13;;
82479;SDS011;72105;46.112;12.902;2024-02-21T13:03:23;2.63;;;2.10;;
82479;SDS011;72105;46.112;12.902;2024-02-21T13:05:49;8.80;;;6.13;;
82479;SDS011;72105;46.112;12.902;2024-02-21T13:08:15;3.72;;;2.38;;
82479;SDS011;72105;46.112;12.902;2024-02-21T13:10:41;3.60;;;2.55;;
82479;SDS011;72105;46.112;12.902;2024-02-21T13:13:07;3.90;;;2.97;;
82479;SDS011;72105;46.112;12.902;2024-02-21T13:15:33;4.95;;;3.08;;
82479;SDS011;72105;46.112;12.902;2024-02-21T13:17:59;3.03;;;2.50;;
82479;SDS011;72105;46.112;12.902;2024-02-21T13:20:25;4.40;;;2.58;;
82479;SDS011;72105;46.112;12.902;2024-02-21T13:22:53;3.60;;;2.97;;
82479;SDS011;72105;46.112;12.902;2024-02-21T13:25:19;2.95;;;2.40;;
82479;SDS011;72105;46.112;12.902;2024-02-21T13:27:46;3.72;;;2.55;;
82479;SDS011;72105;46.112;12.902;2024-02-21T13:30:13;4.90;;;3.28;;
82479;SDS011;72105;46.112;12.902;2024-02-21T13:37:33;5.30;;;3.30;;
82479;SDS011;72105;46.112;12.902;2024-02-21T13:39:59;9.27;;;5.18;;
82479;SDS011;72105;46.112;12.902;2024-02-21T13:42:26;5.03;;;3.25;;
82479;SDS011;72105;46.112;12.902;2024-02-21T13:44:53;4.93;;;3.65;;
82479;SDS011;72105;46.112;12.902;2024-02-21T13:47:19;4.45;;;3.20;;
82479;SDS011;72105;46.112;12.902;2024-02-21T13:49:46;4.57;;;3.78;;
82479;SDS011;72105;46.112;12.902;2024-02-21T13:52:12;5.47;;;3.10;;
82479;SDS011;72105;46.112;12.902;2024-02-21T13:54:39;5.00;;;3.53;;
82479;SDS011;72105;46.112;12.902;2024-02-21T13:57:05;5.68;;;3.55;;
82479;SDS011;72105;46.112;12.902;2024-02-21T13:59:31;4.60;;;3.38;;
82479;SDS011;72105;46.112;12.902;2024-02-21T14:01:59;5.28;;;3.30;;
82479;SDS011;72105;46.112;12.902;2024-02-21T14:04:25;4.25;;;2.85;;
82479;SDS011;72105;46.112;12.902;2024-02-21T14:06:51;5.00;;;2.78;;
82479;SDS011;72105;46.112;12.902;2024-02-21T14:09:18;6.90;;;3.90;;
82479;SDS011;72105;46.112;12.902;2024-02-21T14:11:44;5.47;;;3.65;;
82479;SDS011;72105;46.112;12.902;2024-02-21T14:14:11;5.13;;;3.05;;
82479;SDS011;72105;46.112;12.902;2024-02-21T14:16:40;5.38;;;3.40;;
82479;SDS011;72105;46.112;12.902;2024-02-21T14:19:06;3.47;;;2.72;;
82479;SDS011;72105;46.112;12.902;2024-02-21T14:21:34;11.43;;;4.18;;
82479;SDS011;72105;46.112;12.902;2024-02-21T14:24:03;4.60;;;3.25;;
82479;SDS011;72105;46.112;12.902;2024-02-21T14:26:30;5.35;;;3.45;;
82479;SDS011;72105;46.112;12.902;2024-02-21T14:28:59;3.78;;;3.30;;
82479;SDS011;72105;46.112;12.902;2024-02-21T14:31:25;4.70;;;3.72;;
82479;SDS011;72105;46.112;12.902;2024-02-21T14:33:51;5.10;;;4.10;;
82479;SDS011;72105;46.112;12.902;2024-02-21T14:36:17;4.35;;;3.63;;
82479;SDS011;72105;46.112;12.902;2024-02-21T14:38:43;4.70;;;3.38;;
82479;SDS011;72105;46.112;12.902;2024-02-21T14:41:10;4.75;;;3.45;;
82479;SDS011;72105;46.112;12.902;2024-02-21T14:43:39;5.93;;;3.60;;
82479;SDS011;72105;46.112;12.902;2024-02-21T14:46:05;7.38;;;3.92;;
82479;SDS011;72105;46.112;12.902;2024-02-21T14:48:31;5.72;;;4.38;;
82479;SDS011;72105;46.112;12.902;2024-02-21T14:50:58;5.75;;;3.80;;